createdAt,value
2018-02-15T04:56:50.749Z,38.60
2018-02-15T04:59:18.175Z,42.50
2018-02-15T05:01:45.601Z,43.80
2018-02-15T05:04:13.778Z,42.80
2018-02-15T05:06:41.202Z,42.80
2018-02-15T05:09:08.626Z,42.50
2018-02-15T05:11:36.044Z,42.50
2018-02-15T05:14:04.550Z,41.90
2018-02-15T05:16:31.962Z,41.90
2018-02-15T05:19:00.141Z,41.90
2018-02-15T05:21:28.325Z,41.10
2018-02-15T05:23:55.750Z,41.10
2018-02-15T05:26:23.163Z,40.90
2018-02-15T05:28:50.573Z,40.80
2018-02-15T05:31:18.006Z,40.60
2018-02-15T05:33:45.417Z,40.50
2018-02-15T05:36:12.862Z,40.50
2018-02-15T05:38:41.037Z,40.40
2018-02-15T05:41:09.221Z,40.30
2018-02-15T05:43:37.006Z,40.30
2018-02-15T05:46:04.445Z,40.20
2018-02-15T05:48:31.861Z,40.20
2018-02-15T05:50:59.278Z,40.10
2018-02-15T05:53:26.693Z,40.00
2018-02-15T05:55:54.878Z,40.00
2018-02-15T05:58:22.289Z,40.00
2018-02-15T06:00:49.713Z,40.00
2018-02-15T06:03:17.121Z,40.00
2018-02-15T06:05:44.546Z,40.00
2018-02-15T06:08:17.934Z,40.60
2018-02-15T06:10:46.254Z,40.00
2018-02-15T06:13:14.449Z,40.60
2018-02-15T06:15:41.880Z,40.00
2018-02-15T06:18:15.189Z,39.90
2018-02-15T06:20:43.365Z,40.00
2018-02-15T06:23:11.546Z,40.00
2018-02-15T06:25:38.979Z,40.00
2018-02-15T06:28:14.584Z,40.00
2018-02-15T06:30:43.006Z,40.00
2018-02-15T06:33:22.609Z,40.00
2018-02-15T06:35:50.033Z,40.00
2018-02-15T06:38:17.442Z,39.90
2018-02-15T06:40:44.858Z,39.90
2018-02-15T06:43:12.281Z,39.90
2018-02-15T06:45:39.696Z,39.90
2018-02-15T06:48:07.174Z,39.90
2018-02-15T06:50:35.353Z,39.90
2018-02-15T06:53:03.583Z,39.90
2018-02-15T06:55:31.709Z,40.30
2018-02-15T06:58:10.109Z,39.90
2018-02-15T07:00:37.529Z,40.00
2018-02-15T07:03:04.941Z,40.00
2018-02-15T07:05:33.129Z,40.50
2018-02-15T07:08:01.305Z,41.30
2018-02-15T07:10:28.738Z,41.30
2018-02-15T07:12:56.154Z,41.60
2018-02-15T07:15:23.801Z,41.90
2018-02-15T07:17:51.217Z,42.00
2018-02-15T07:20:19.396Z,42.30
2018-02-15T07:22:47.581Z,42.20
2018-02-15T07:25:14.998Z,42.30
2018-02-15T07:27:42.753Z,42.30
2018-02-15T07:30:10.136Z,42.20
2018-02-15T07:32:38.326Z,43.20
2018-02-15T07:35:06.513Z,42.80
2018-02-15T07:37:33.934Z,42.70
2018-02-15T07:40:01.346Z,42.90
2018-02-15T07:42:28.778Z,43.20
2018-02-15T07:44:56.949Z,43.60
2018-02-15T07:47:24.372Z,43.60
2018-02-15T07:49:51.789Z,43.60
2018-02-15T07:52:19.222Z,43.80
2018-02-15T07:54:50.034Z,42.80
2018-02-15T07:57:17.446Z,40.00
2018-02-15T07:59:44.881Z,37.10
2018-02-15T08:02:13.285Z,38.30
2018-02-15T08:04:40.710Z,38.10
2018-02-15T08:07:08.126Z,38.70
2018-02-15T08:09:35.741Z,38.30
2018-02-15T08:12:03.160Z,38.50
2018-02-15T08:14:31.337Z,38.80
2018-02-15T08:16:59.529Z,39.10
2018-02-15T08:19:26.945Z,39.10
2018-02-15T08:21:54.557Z,39.30
2018-02-15T08:24:21.973Z,39.30
2018-02-15T08:26:49.386Z,39.40
2018-02-15T08:29:16.809Z,39.70
2018-02-15T08:31:44.221Z,39.70
2018-02-15T08:34:11.633Z,39.80
2018-02-15T08:36:42.729Z,40.60
2018-02-15T08:39:10.160Z,40.00
2018-02-15T08:41:37.566Z,40.20
2018-02-15T08:44:05.757Z,40.30
2018-02-15T08:46:33.166Z,40.30
2018-02-15T08:49:03.511Z,40.50
2018-02-15T08:51:31.714Z,40.50
2018-02-15T08:53:59.128Z,40.50
2018-02-15T08:56:26.544Z,40.70
2018-02-15T08:58:53.957Z,40.70
2018-02-15T09:01:22.135Z,40.80
2018-02-15T09:03:50.333Z,40.80
2018-02-15T09:06:17.749Z,40.80
2018-02-15T09:08:45.161Z,40.90
2018-02-15T09:11:12.585Z,41.50
2018-02-15T09:13:40.001Z,40.90
2018-02-15T09:16:07.421Z,41.10
2018-02-15T09:18:34.833Z,41.10
2018-02-15T09:21:03.032Z,41.60
2018-02-15T09:23:30.449Z,41.20
2018-02-15T09:25:57.873Z,41.20
2018-02-15T09:28:25.290Z,41.20
2018-02-15T09:30:53.470Z,41.30
2018-02-15T09:33:20.993Z,41.20
2018-02-15T09:35:49.918Z,41.20
2018-02-15T09:38:18.094Z,41.30
2018-02-15T09:40:45.517Z,41.30
2018-02-15T09:43:13.701Z,41.30
2018-02-15T09:45:41.167Z,41.30
2018-02-15T09:48:08.533Z,41.40
2018-02-15T09:50:35.959Z,41.40
2018-02-15T09:53:03.386Z,41.30
2018-02-15T09:55:30.894Z,41.30
2018-02-15T09:57:59.086Z,41.30
2018-02-15T10:00:26.499Z,41.30
2018-02-15T10:02:54.185Z,41.40
2018-02-15T10:05:22.365Z,41.40
2018-02-15T10:07:50.550Z,41.40
2018-02-15T10:10:17.974Z,41.40
2018-02-15T10:12:45.389Z,41.50
2018-02-15T10:15:12.797Z,41.30
2018-02-15T10:17:40.989Z,41.50
2018-02-15T10:20:08.401Z,41.40
2018-02-15T10:22:35.833Z,41.40
2018-02-15T10:25:03.257Z,41.40
2018-02-15T10:27:31.440Z,41.50
2018-02-15T10:29:58.857Z,41.40
2018-02-15T10:32:26.269Z,41.40
2018-02-15T10:34:53.701Z,41.40
2018-02-15T10:37:21.113Z,41.50
2018-02-15T10:39:48.533Z,41.40
2018-02-15T10:42:15.945Z,41.40
2018-02-15T10:44:44.125Z,42.00
2018-02-15T10:47:12.318Z,41.40
2018-02-15T10:49:39.737Z,41.50
2018-02-15T10:52:07.157Z,41.40
2018-02-15T10:54:34.572Z,41.40
2018-02-15T10:57:01.998Z,41.30
2018-02-15T10:59:29.410Z,41.40
2018-02-15T11:02:02.467Z,41.40
2018-02-15T11:04:34.533Z,41.40
2018-02-15T11:07:02.761Z,41.30
2018-02-15T11:09:30.178Z,41.70
2018-02-15T11:11:57.766Z,41.30
2018-02-15T11:14:25.189Z,41.40
2018-02-15T11:16:52.605Z,41.30
2018-02-15T11:19:20.010Z,41.30
2018-02-15T11:21:47.417Z,41.30
2018-02-15T11:24:14.836Z,41.30
2018-02-15T11:26:42.257Z,41.30
2018-02-15T11:29:09.685Z,41.30
2018-02-15T11:31:37.101Z,41.90
2018-02-15T11:34:04.518Z,41.30
2018-02-15T11:36:31.942Z,41.30
2018-02-15T11:38:59.352Z,41.80
2018-02-15T11:41:26.773Z,41.40
2018-02-15T11:43:54.193Z,41.30
2018-02-15T11:46:21.617Z,41.30
2018-02-15T11:48:49.790Z,41.20
2018-02-15T11:51:17.974Z,41.30
2018-02-15T11:53:45.405Z,41.30
2018-02-15T11:56:13.590Z,41.70
2018-02-15T11:58:41.826Z,41.30
2018-02-15T12:01:09.234Z,41.30
2018-02-15T12:03:36.661Z,41.30
2018-02-15T12:06:04.101Z,41.30
2018-02-15T12:08:31.530Z,41.30
2018-02-15T12:10:58.942Z,41.30
2018-02-15T12:13:27.121Z,41.30
2018-02-15T12:15:55.313Z,41.30
2018-02-15T12:18:22.725Z,41.20
2018-02-15T12:20:50.164Z,41.10
2018-02-15T12:23:17.565Z,41.30
2018-02-15T12:25:45.753Z,41.20
2018-02-15T12:28:13.178Z,41.20
2018-02-15T12:30:40.654Z,41.20
2018-02-15T12:33:08.850Z,41.30
2018-02-15T12:35:36.266Z,41.30
2018-02-15T12:38:03.690Z,41.20
2018-02-15T12:40:31.109Z,41.30
2018-02-15T12:42:58.526Z,41.30
2018-02-15T12:45:25.949Z,41.20
2018-02-15T12:47:53.366Z,41.80
2018-02-15T12:50:21.550Z,41.30
2018-02-15T12:52:48.970Z,41.30
2018-02-15T12:55:16.398Z,41.30
2018-02-15T12:57:43.813Z,41.30
2018-02-15T13:00:11.497Z,41.30
2018-02-15T13:02:38.910Z,41.30
2018-02-15T13:05:06.325Z,41.20
2018-02-15T13:07:33.750Z,41.20
2018-02-15T13:10:01.166Z,41.70
2018-02-15T13:12:40.517Z,41.10
2018-02-15T13:18:11.533Z,41.00
2018-02-15T13:20:38.942Z,41.10
2018-02-15T13:23:07.114Z,41.10
2018-02-15T13:25:35.302Z,41.10
2018-02-15T13:28:14.601Z,41.10
2018-02-15T13:30:42.013Z,41.20
2018-02-15T13:33:09.673Z,41.20
2018-02-15T13:35:37.085Z,41.30
2018-02-15T13:38:04.497Z,41.30
2018-02-15T13:40:31.921Z,41.30
2018-02-15T13:42:59.338Z,41.30
2018-02-15T13:45:26.761Z,41.30
2018-02-15T13:47:54.180Z,41.30
2018-02-15T13:50:22.365Z,41.30
2018-02-15T13:52:49.777Z,41.30
2018-02-15T13:55:17.209Z,41.20
2018-02-15T13:57:44.621Z,41.30
2018-02-15T14:00:12.825Z,41.20
2018-02-15T14:02:40.234Z,41.20
2018-02-15T14:05:07.646Z,41.20
2018-02-15T14:07:35.065Z,41.20
2018-02-15T14:10:03.292Z,41.30
2018-02-15T14:12:30.678Z,41.20
2018-02-15T14:14:58.082Z,41.20
2018-02-15T14:17:25.502Z,41.20
2018-02-15T14:19:53.681Z,41.30
2018-02-15T14:22:21.877Z,41.30
2018-02-15T14:24:49.291Z,41.30
2018-02-15T14:27:16.717Z,41.30
2018-02-15T14:29:44.140Z,41.30
2018-02-15T14:32:11.579Z,41.40
2018-02-15T14:34:39.757Z,41.10
2018-02-15T14:37:07.941Z,41.10
2018-02-15T14:39:39.205Z,41.10
2018-02-15T14:42:06.620Z,41.10
2018-02-15T14:44:34.806Z,41.20
2018-02-15T14:47:02.997Z,41.10
2018-02-15T14:49:30.407Z,41.00
2018-02-15T14:51:57.838Z,41.10
2018-02-15T14:54:25.270Z,41.10
2018-02-15T14:56:52.946Z,41.10
2018-02-15T14:59:20.357Z,41.10
2018-02-15T15:01:48.545Z,41.80
2018-02-15T15:04:16.729Z,41.20
2018-02-15T15:06:44.157Z,41.20
2018-02-15T15:09:12.340Z,41.20
2018-02-15T15:11:40.517Z,41.20
2018-02-15T15:14:08.722Z,41.20
2018-02-15T15:16:36.138Z,41.20
2018-02-15T15:19:04.317Z,41.30
2018-02-15T15:21:32.514Z,41.20
2018-02-15T15:23:59.939Z,41.10
2018-02-15T15:26:29.759Z,41.20
2018-02-15T15:28:57.936Z,41.30
2018-02-15T15:31:26.129Z,41.30
2018-02-15T15:33:53.545Z,41.20
2018-02-15T15:36:20.962Z,41.20
2018-02-15T15:38:48.518Z,41.20
2018-02-15T15:41:15.946Z,41.40
2018-02-15T15:43:44.121Z,41.40
2018-02-15T15:46:18.339Z,41.30
2018-02-15T15:48:45.697Z,41.30
2018-02-15T15:51:13.137Z,41.30
2018-02-15T15:53:41.318Z,41.30
2018-02-15T15:56:09.496Z,41.40
2018-02-15T15:58:36.921Z,41.40
2018-02-15T16:01:04.337Z,41.40
2018-02-15T16:03:31.769Z,41.40
2018-02-15T16:06:00.136Z,41.40
2018-02-15T16:08:28.314Z,41.40
2018-02-15T16:10:56.514Z,41.40
2018-02-15T16:13:23.926Z,41.40
2018-02-15T16:15:52.146Z,41.80
2018-02-15T16:18:19.558Z,42.10
2018-02-15T16:20:47.763Z,41.50
2018-02-15T16:23:15.179Z,41.50
2018-02-15T16:25:42.599Z,41.60
2018-02-15T16:28:10.024Z,41.50
2018-02-15T16:30:38.284Z,41.90
2018-02-15T16:33:06.474Z,41.90
2018-02-15T16:35:33.927Z,41.90
2018-02-15T16:38:02.098Z,43.00
2018-02-15T16:40:30.710Z,43.60
2018-02-15T16:42:58.129Z,43.60
2018-02-15T16:45:26.313Z,43.60
2018-02-15T16:47:53.792Z,43.60
2018-02-15T16:50:21.210Z,43.40
2018-02-15T16:52:49.417Z,43.40
2018-02-15T16:55:17.589Z,42.70
2018-02-15T16:57:45.010Z,42.70
2018-02-15T17:00:12.421Z,43.00
2018-02-15T17:02:39.841Z,42.10
2018-02-15T17:05:08.026Z,43.10
2018-02-15T17:37:38.889Z,44.20
2018-02-15T17:40:06.302Z,43.90
2018-02-15T17:42:34.490Z,44.60
2018-02-15T17:45:03.806Z,44.50
2018-02-15T17:47:31.230Z,44.50
2018-02-15T17:51:01.758Z,45.20
2018-02-15T17:53:29.945Z,44.50
2018-02-15T17:55:58.139Z,44.30
2018-02-15T17:58:25.549Z,44.30
2018-02-15T18:00:52.969Z,44.40
2018-02-15T18:03:20.400Z,44.60
2018-02-15T18:05:47.813Z,44.20
2018-02-15T18:08:15.329Z,44.80
2018-02-15T18:10:42.746Z,45.00
2018-02-15T18:13:10.933Z,44.60
2018-02-15T18:15:39.137Z,44.10
2018-02-15T18:18:06.558Z,44.10
2018-02-15T18:20:34.745Z,33.60
2018-02-15T18:23:02.177Z,33.50
2018-02-15T18:25:30.370Z,41.80
2018-02-15T18:27:58.557Z,42.60
2018-02-15T18:30:25.973Z,42.00
2018-02-15T18:32:53.391Z,42.60
2018-02-15T18:35:20.814Z,42.70
2018-02-15T18:37:48.990Z,42.30
2018-02-15T18:40:16.413Z,42.30
2018-02-15T18:42:43.837Z,42.20
2018-02-15T18:45:11.597Z,42.90
2018-02-15T18:47:39.021Z,43.80
2018-02-15T18:50:07.197Z,44.00
2018-02-15T18:52:34.628Z,44.00
2018-02-15T18:55:02.054Z,43.80
2018-02-15T18:57:29.482Z,44.00
2018-02-15T18:59:56.893Z,43.30
2018-02-15T19:02:24.605Z,42.90
2018-02-15T19:04:52.022Z,42.30
2018-02-15T19:07:20.209Z,42.10
2018-02-15T19:09:48.409Z,41.90
2018-02-15T19:12:15.824Z,41.80
2018-02-15T19:14:44.149Z,41.60
2018-02-15T19:17:11.558Z,41.60
2018-02-15T19:19:39.753Z,41.30
2018-02-15T19:22:07.936Z,41.40
2018-02-15T19:24:35.363Z,41.20
2018-02-15T19:27:04.362Z,40.70
2018-02-15T19:29:32.566Z,41.20
2018-02-15T19:32:00.753Z,41.10
2018-02-15T19:34:28.169Z,41.00
2018-02-15T19:36:56.356Z,41.10
2018-02-15T19:39:24.530Z,41.00
2018-02-15T19:41:52.718Z,41.00
2018-02-15T19:44:20.130Z,41.00
2018-02-15T19:46:47.546Z,40.90
2018-02-15T19:49:15.301Z,40.90
2018-02-15T19:51:42.718Z,40.90
2018-02-15T19:54:10.897Z,40.90
2018-02-15T19:56:39.090Z,40.90
2018-02-15T19:59:06.505Z,40.80
2018-02-15T20:01:33.938Z,40.80
2018-02-15T20:04:01.357Z,40.80
2018-02-15T20:06:28.938Z,40.80
2018-02-15T20:08:56.379Z,40.80
2018-02-15T20:11:23.794Z,40.80
2018-02-15T20:13:54.873Z,40.70
2018-02-15T20:16:23.049Z,40.70
2018-02-15T20:18:50.481Z,40.70
2018-02-15T20:21:18.671Z,40.70
2018-02-15T20:23:46.081Z,40.70
2018-02-15T20:26:19.097Z,40.70
2018-02-15T20:28:47.273Z,40.70
2018-02-15T20:31:15.458Z,40.70
2018-02-15T20:33:43.646Z,40.70
2018-02-15T20:36:11.085Z,40.60
2018-02-15T20:38:44.457Z,40.70
2018-02-15T20:41:11.878Z,40.80
2018-02-15T20:43:39.289Z,40.60
2018-02-15T20:46:07.514Z,40.90
2018-02-15T20:48:34.953Z,40.70
2018-02-15T20:51:11.443Z,40.70
2018-02-15T20:53:44.688Z,40.60
2018-02-15T20:56:12.868Z,40.60
2018-02-15T20:59:04.117Z,40.60
2018-02-15T21:01:31.574Z,40.70
2018-02-15T21:03:59.717Z,40.70
2018-02-15T21:06:27.397Z,40.60
2018-02-15T21:08:54.809Z,40.60
2018-02-15T21:11:22.994Z,41.30
2018-02-15T21:14:03.734Z,40.60
2018-02-15T21:16:31.158Z,40.60
2018-02-15T21:18:58.582Z,40.50
2018-02-15T21:21:26.756Z,40.60
2018-02-15T21:23:55.753Z,40.60
2018-02-15T21:26:23.913Z,41.10
2018-02-15T21:28:52.101Z,40.60
2018-02-15T21:31:19.513Z,40.60
2018-02-15T21:33:46.950Z,40.60
2018-02-15T21:36:14.356Z,40.50
2018-02-15T21:38:42.541Z,40.50
2018-02-15T21:41:10.895Z,40.50
2018-02-15T21:43:58.329Z,40.50
2018-02-15T21:46:26.556Z,40.50
2018-02-15T21:48:53.969Z,40.40
2018-02-15T21:51:22.157Z,40.40
2018-02-15T21:53:55.100Z,40.40
2018-02-15T21:56:22.518Z,40.50
2018-02-15T21:58:49.941Z,40.40
2018-02-15T22:01:18.124Z,40.40
2018-02-15T22:03:45.542Z,40.40
2018-02-15T22:06:12.963Z,40.40
2018-02-15T22:08:40.377Z,40.30
2018-02-15T22:11:08.565Z,40.40
2018-02-15T22:13:37.061Z,40.40
2018-02-15T22:16:04.473Z,40.20
2018-02-15T22:18:31.887Z,40.40
2018-02-15T22:20:59.309Z,40.40
2018-02-15T22:23:27.485Z,40.20
2018-02-15T22:25:54.909Z,40.20
2018-02-15T22:28:23.094Z,40.20
2018-02-15T22:30:50.529Z,40.30
2018-02-15T22:33:17.945Z,40.20
2018-02-15T22:35:45.357Z,40.20
2018-02-15T22:38:12.792Z,40.20
2018-02-15T22:40:40.197Z,41.00
2018-02-15T22:43:07.617Z,40.20
2018-02-15T22:45:35.043Z,40.30
2018-02-15T22:48:02.470Z,40.30
2018-02-15T22:50:29.894Z,40.20
2018-02-15T22:52:57.342Z,40.20
2018-02-15T22:55:24.773Z,40.20
2018-02-15T22:57:52.178Z,40.20
2018-02-15T23:00:20.368Z,40.20
2018-02-15T23:02:47.777Z,40.10
2018-02-15T23:05:15.202Z,40.20
2018-02-15T23:07:42.617Z,40.20
2018-02-15T23:10:10.815Z,40.20
2018-02-15T23:12:38.229Z,40.10
2018-02-15T23:15:05.650Z,40.20
2018-02-15T23:17:33.073Z,40.20
2018-02-15T23:20:00.494Z,40.10
2018-02-15T23:22:27.922Z,40.10
2018-02-15T23:24:55.341Z,40.10
2018-02-15T23:27:23.522Z,40.20
2018-02-15T23:29:50.966Z,40.10
2018-02-15T23:32:19.145Z,40.10
2018-02-15T23:34:47.326Z,40.20
2018-02-15T23:37:15.037Z,40.10
2018-02-15T23:39:42.449Z,40.10
2018-02-15T23:42:09.866Z,40.10
2018-02-15T23:44:37.281Z,40.10
2018-02-15T23:47:04.695Z,40.10
2018-02-15T23:49:32.885Z,40.10
2018-02-15T23:52:00.297Z,40.10
2018-02-15T23:54:28.482Z,40.10
2018-02-15T23:56:55.900Z,40.20
2018-02-15T23:59:23.342Z,40.00
